sensor_id;sensor_type;location;lat;lon;timestamp;P1;durP1;ratioP1;P2;durP2;ratioP2
52434;SDS011;38354;52.892;6.148;2022-12-13T04:02:11;42.92;;;17.38;;
52434;SDS011;38354;52.892;6.148;2022-12-13T04:04:36;43.47;;;17.92;;
52434;SDS011;38354;52.892;6.148;2022-12-13T04:07:02;35.45;;;17.27;;
52434;SDS011;38354;52.892;6.148;2022-12-13T04:09:28;44.83;;;18.10;;
52434;SDS011;38354;52.892;6.148;2022-12-13T04:11:53;43.67;;;18.08;;
52434;SDS011;38354;52.892;6.148;2022-12-13T04:14:37;43.45;;;18.75;;
52434;SDS011;38354;52.892;6.148;2022-12-13T04:17:03;41.83;;;17.65;;
52434;SDS011;38354;52.892;6.148;2022-12-13T04:19:28;38.25;;;18.15;;
52434;SDS011;38354;52.892;6.148;2022-12-13T04:21:54;39.03;;;17.17;;
52434;SDS011;38354;52.892;6.148;2022-12-13T04:24:23;47.85;;;18.27;;
52434;SDS011;38354;52.892;6.148;2022-12-13T04:26:49;39.30;;;18.23;;
52434;SDS011;38354;52.892;6.148;2022-12-13T04:29:15;45.97;;;19.25;;
52434;SDS011;38354;52.892;6.148;2022-12-13T04:31:41;39.40;;;18.63;;
52434;SDS011;38354;52.892;6.148;2022-12-13T04:34:06;44.15;;;18.10;;
52434;SDS011;38354;52.892;6.148;2022-12-13T04:36:32;44.97;;;19.45;;
52434;SDS011;38354;52.892;6.148;2022-12-13T04:39:07;37.92;;;17.13;;
52434;SDS011;38354;52.892;6.148;2022-12-13T04:41:37;44.33;;;19.30;;
52434;SDS011;38354;52.892;6.148;2022-12-13T04:44:04;42.08;;;18.35;;
52434;SDS011;38354;52.892;6.148;2022-12-13T04:46:30;53.85;;;18.35;;
52434;SDS011;38354;52.892;6.148;2022-12-13T04:48:56;57.83;;;19.05;;
52434;SDS011;38354;52.892;6.148;2022-12-13T04:51:22;42.17;;;18.02;;
52434;SDS011;38354;52.892;6.148;2022-12-13T04:53:48;41.33;;;18.67;;
52434;SDS011;38354;52.892;6.148;2022-12-13T04:56:14;44.33;;;18.08;;
52434;SDS011;38354;52.892;6.148;2022-12-13T04:58:39;36.33;;;17.60;;
52434;SDS011;38354;52.892;6.148;2022-12-13T05:01:05;42.58;;;17.63;;
52434;SDS011;38354;52.892;6.148;2022-12-13T05:03:32;39.90;;;19.20;;
52434;SDS011;38354;52.892;6.148;2022-12-13T05:05:58;41.38;;;18.63;;
52434;SDS011;38354;52.892;6.148;2022-12-13T05:08:24;41.85;;;18.38;;
52434;SDS011;38354;52.892;6.148;2022-12-13T05:10:49;42.50;;;18.05;;
52434;SDS011;38354;52.892;6.148;2022-12-13T05:13:15;41.40;;;17.55;;
52434;SDS011;38354;52.892;6.148;2022-12-13T05:15:41;42.15;;;18.67;;
52434;SDS011;38354;52.892;6.148;2022-12-13T05:18:07;44.83;;;19.48;;
52434;SDS011;38354;52.892;6.148;2022-12-13T05:20:35;40.28;;;18.02;;
52434;SDS011;38354;52.892;6.148;2022-12-13T05:23:02;42.90;;;18.80;;
52434;SDS011;38354;52.892;6.148;2022-12-13T05:25:27;40.17;;;18.23;;
52434;SDS011;38354;52.892;6.148;2022-12-13T05:27:53;38.47;;;17.38;;
52434;SDS011;38354;52.892;6.148;2022-12-13T05:30:21;39.45;;;17.73;;
52434;SDS011;38354;52.892;6.148;2022-12-13T05:32:47;43.13;;;17.98;;
52434;SDS011;38354;52.892;6.148;2022-12-13T05:35:13;41.90;;;19.33;;
52434;SDS011;38354;52.892;6.148;2022-12-13T05:37:39;41.60;;;18.15;;
52434;SDS011;38354;52.892;6.148;2022-12-13T05:40:06;45.40;;;19.65;;
52434;SDS011;38354;52.892;6.148;2022-12-13T05:42:32;42.85;;;18.38;;
52434;SDS011;38354;52.892;6.148;2022-12-13T05:44:58;43.60;;;18.33;;
52434;SDS011;38354;52.892;6.148;2022-12-13T05:47:23;38.83;;;18.75;;
52434;SDS011;38354;52.892;6.148;2022-12-13T05:49:49;39.55;;;18.17;;
52434;SDS011;38354;52.892;6.148;2022-12-13T05:52:20;39.92;;;18.02;;
52434;SDS011;38354;52.892;6.148;2022-12-13T05:54:46;43.92;;;19.05;;
52434;SDS011;38354;52.892;6.148;2022-12-13T05:57:12;46.55;;;19.50;;
52434;SDS011;38354;52.892;6.148;2022-12-13T05:59:38;44.92;;;19.52;;
52434;SDS011;38354;52.892;6.148;2022-12-13T06:02:04;44.83;;;19.13;;
52434;SDS011;38354;52.892;6.148;2022-12-13T06:04:30;40.63;;;19.48;;
52434;SDS011;38354;52.892;6.148;2022-12-13T06:06:56;45.75;;;18.77;;
52434;SDS011;38354;52.892;6.148;2022-12-13T06:09:21;47.20;;;20.95;;
52434;SDS011;38354;52.892;6.148;2022-12-13T06:11:47;43.83;;;20.27;;
52434;SDS011;38354;52.892;6.148;2022-12-13T06:14:14;41.53;;;19.80;;
52434;SDS011;38354;52.892;6.148;2022-12-13T06:16:40;46.22;;;19.27;;
52434;SDS011;38354;52.892;6.148;2022-12-13T06:19:06;47.47;;;21.15;;
52434;SDS011;38354;52.892;6.148;2022-12-13T06:21:32;42.45;;;20.42;;
52434;SDS011;38354;52.892;6.148;2022-12-13T06:23:58;50.72;;;20.75;;
52434;SDS011;38354;52.892;6.148;2022-12-13T06:26:24;52.60;;;21.45;;
52434;SDS011;38354;52.892;6.148;2022-12-13T06:28:50;43.63;;;20.10;;
52434;SDS011;38354;52.892;6.148;2022-12-13T06:31:15;44.05;;;19.80;;
52434;SDS011;38354;52.892;6.148;2022-12-13T06:33:41;45.80;;;20.13;;
52434;SDS011;38354;52.892;6.148;2022-12-13T06:36:07;46.70;;;19.33;;
52434;SDS011;38354;52.892;6.148;2022-12-13T06:38:34;45.42;;;20.55;;
52434;SDS011;38354;52.892;6.148;2022-12-13T06:41:15;44.28;;;19.70;;
52434;SDS011;38354;52.892;6.148;2022-12-13T06:43:41;42.47;;;18.98;;
52434;SDS011;38354;52.892;6.148;2022-12-13T06:46:09;45.33;;;19.08;;
52434;SDS011;38354;52.892;6.148;2022-12-13T06:48:34;52.25;;;20.80;;
52434;SDS011;38354;52.892;6.148;2022-12-13T06:51:01;43.95;;;20.13;;
52434;SDS011;38354;52.892;6.148;2022-12-13T06:53:30;46.78;;;19.77;;
52434;SDS011;38354;52.892;6.148;2022-12-13T06:56:01;46.67;;;18.65;;
52434;SDS011;38354;52.892;6.148;2022-12-13T06:58:28;47.97;;;20.20;;
52434;SDS011;38354;52.892;6.148;2022-12-13T07:01:14;41.50;;;18.92;;
52434;SDS011;38354;52.892;6.148;2022-12-13T07:03:41;48.83;;;19.48;;
52434;SDS011;38354;52.892;6.148;2022-12-13T07:06:10;41.92;;;19.55;;
52434;SDS011;38354;52.892;6.148;2022-12-13T07:08:47;46.33;;;19.55;;
52434;SDS011;38354;52.892;6.148;2022-12-13T07:11:16;45.65;;;19.02;;
52434;SDS011;38354;52.892;6.148;2022-12-13T07:13:44;46.70;;;19.95;;
52434;SDS011;38354;52.892;6.148;2022-12-13T07:16:10;45.53;;;19.27;;
52434;SDS011;38354;52.892;6.148;2022-12-13T07:18:37;46.08;;;20.05;;
52434;SDS011;38354;52.892;6.148;2022-12-13T07:21:03;51.45;;;19.55;;
52434;SDS011;38354;52.892;6.148;2022-12-13T07:23:30;48.45;;;19.63;;
52434;SDS011;38354;52.892;6.148;2022-12-13T07:25:56;52.08;;;20.08;;
52434;SDS011;38354;52.892;6.148;2022-12-13T07:28:21;44.63;;;19.25;;
52434;SDS011;38354;52.892;6.148;2022-12-13T07:30:47;41.58;;;17.98;;
52434;SDS011;38354;52.892;6.148;2022-12-13T07:33:13;42.75;;;19.40;;
52434;SDS011;38354;52.892;6.148;2022-12-13T07:35:39;42.60;;;18.85;;
52434;SDS011;38354;52.892;6.148;2022-12-13T07:38:05;43.80;;;19.90;;
52434;SDS011;38354;52.892;6.148;2022-12-13T07:40:32;48.00;;;20.92;;
52434;SDS011;38354;52.892;6.148;2022-12-13T07:42:59;44.20;;;19.48;;
52434;SDS011;38354;52.892;6.148;2022-12-13T07:45:25;43.10;;;19.90;;
52434;SDS011;38354;52.892;6.148;2022-12-13T07:47:51;48.65;;;21.58;;
52434;SDS011;38354;52.892;6.148;2022-12-13T07:50:16;48.53;;;20.33;;
52434;SDS011;38354;52.892;6.148;2022-12-13T07:52:45;48.40;;;21.17;;
52434;SDS011;38354;52.892;6.148;2022-12-13T07:55:12;52.38;;;22.63;;
52434;SDS011;38354;52.892;6.148;2022-12-13T07:57:38;48.03;;;20.50;;
52434;SDS011;38354;52.892;6.148;2022-12-13T08:00:04;47.50;;;22.10;;
52434;SDS011;38354;52.892;6.148;2022-12-13T08:02:30;50.67;;;22.13;;
52434;SDS011;38354;52.892;6.148;2022-12-13T08:07:36;44.33;;;19.92;;
52434;SDS011;38354;52.892;6.148;2022-12-13T08:10:01;42.92;;;19.05;;
52434;SDS011;38354;52.892;6.148;2022-12-13T08:12:27;44.38;;;19.08;;
52434;SDS011;38354;52.892;6.148;2022-12-13T08:14:53;49.35;;;20.13;;
52434;SDS011;38354;52.892;6.148;2022-12-13T08:17:19;40.95;;;19.38;;
52434;SDS011;38354;52.892;6.148;2022-12-13T08:19:45;49.80;;;20.17;;
52434;SDS011;38354;52.892;6.148;2022-12-13T08:22:11;48.00;;;21.35;;
52434;SDS011;38354;52.892;6.148;2022-12-13T08:24:38;48.30;;;20.48;;
52434;SDS011;38354;52.892;6.148;2022-12-13T08:27:04;49.95;;;22.20;;
52434;SDS011;38354;52.892;6.148;2022-12-13T08:29:30;50.17;;;21.13;;
52434;SDS011;38354;52.892;6.148;2022-12-13T08:31:56;54.13;;;22.27;;
52434;SDS011;38354;52.892;6.148;2022-12-13T08:34:22;55.47;;;22.52;;
52434;SDS011;38354;52.892;6.148;2022-12-13T08:36:48;53.30;;;22.80;;
52434;SDS011;38354;52.892;6.148;2022-12-13T08:39:13;53.00;;;23.02;;
52434;SDS011;38354;52.892;6.148;2022-12-13T08:41:39;53.40;;;22.92;;
52434;SDS011;38354;52.892;6.148;2022-12-13T08:44:05;53.72;;;23.17;;
52434;SDS011;38354;52.892;6.148;2022-12-13T08:46:30;55.40;;;23.58;;
52434;SDS011;38354;52.892;6.148;2022-12-13T08:48:56;53.95;;;22.33;;
52434;SDS011;38354;52.892;6.148;2022-12-13T08:51:21;53.20;;;20.45;;
52434;SDS011;38354;52.892;6.148;2022-12-13T08:53:49;53.97;;;23.23;;
52434;SDS011;38354;52.892;6.148;2022-12-13T08:56:15;49.75;;;22.55;;
52434;SDS011;38354;52.892;6.148;2022-12-13T08:58:43;49.30;;;21.90;;
52434;SDS011;38354;52.892;6.148;2022-12-13T09:01:12;50.58;;;22.02;;
52434;SDS011;38354;52.892;6.148;2022-12-13T09:03:38;51.92;;;21.75;;
52434;SDS011;38354;52.892;6.148;2022-12-13T09:06:13;57.30;;;23.92;;
52434;SDS011;38354;52.892;6.148;2022-12-13T09:08:41;50.22;;;22.92;;
52434;SDS011;38354;52.892;6.148;2022-12-13T09:11:08;52.90;;;23.65;;
52434;SDS011;38354;52.892;6.148;2022-12-13T09:13:35;53.90;;;23.17;;
52434;SDS011;38354;52.892;6.148;2022-12-13T09:16:06;56.45;;;23.23;;
52434;SDS011;38354;52.892;6.148;2022-12-13T09:18:33;56.42;;;23.65;;
52434;SDS011;38354;52.892;6.148;2022-12-13T09:20:59;51.78;;;21.77;;
52434;SDS011;38354;52.892;6.148;2022-12-13T09:23:25;52.15;;;23.08;;
52434;SDS011;38354;52.892;6.148;2022-12-13T09:25:54;55.08;;;24.00;;
52434;SDS011;38354;52.892;6.148;2022-12-13T09:28:21;59.42;;;24.23;;
52434;SDS011;38354;52.892;6.148;2022-12-13T09:30:47;55.15;;;24.38;;
52434;SDS011;38354;52.892;6.148;2022-12-13T09:33:13;52.75;;;23.83;;
52434;SDS011;38354;52.892;6.148;2022-12-13T09:35:38;52.90;;;23.77;;
52434;SDS011;38354;52.892;6.148;2022-12-13T09:38:04;55.17;;;24.02;;
52434;SDS011;38354;52.892;6.148;2022-12-13T09:40:30;58.95;;;24.42;;
52434;SDS011;38354;52.892;6.148;2022-12-13T09:42:58;61.60;;;25.23;;
52434;SDS011;38354;52.892;6.148;2022-12-13T09:45:25;60.83;;;26.40;;
52434;SDS011;38354;52.892;6.148;2022-12-13T09:47:53;62.00;;;25.10;;
52434;SDS011;38354;52.892;6.148;2022-12-13T09:50:31;59.92;;;25.15;;
52434;SDS011;38354;52.892;6.148;2022-12-13T09:55:26;51.42;;;24.02;;
52434;SDS011;38354;52.892;6.148;2022-12-13T09:57:55;56.08;;;24.20;;
52434;SDS011;38354;52.892;6.148;2022-12-13T10:00:23;56.35;;;24.27;;
52434;SDS011;38354;52.892;6.148;2022-12-13T10:02:54;54.15;;;23.92;;
52434;SDS011;38354;52.892;6.148;2022-12-13T10:07:51;49.80;;;24.20;;
52434;SDS011;38354;52.892;6.148;2022-12-13T10:10:20;60.03;;;25.48;;
52434;SDS011;38354;52.892;6.148;2022-12-13T10:12:47;53.63;;;24.67;;
52434;SDS011;38354;52.892;6.148;2022-12-13T10:15:18;51.33;;;24.60;;
52434;SDS011;38354;52.892;6.148;2022-12-13T10:17:46;49.92;;;23.52;;
52434;SDS011;38354;52.892;6.148;2022-12-13T10:20:18;60.80;;;24.90;;
52434;SDS011;38354;52.892;6.148;2022-12-13T10:22:45;51.88;;;24.13;;
52434;SDS011;38354;52.892;6.148;2022-12-13T10:25:11;54.60;;;23.73;;
52434;SDS011;38354;52.892;6.148;2022-12-13T10:27:39;56.50;;;24.80;;
52434;SDS011;38354;52.892;6.148;2022-12-13T10:35:21;52.10;;;24.83;;
52434;SDS011;38354;52.892;6.148;2022-12-13T10:37:49;54.60;;;24.27;;
52434;SDS011;38354;52.892;6.148;2022-12-13T10:40:25;53.53;;;24.85;;
52434;SDS011;38354;52.892;6.148;2022-12-13T10:45:31;52.40;;;25.10;;
52434;SDS011;38354;52.892;6.148;2022-12-13T10:47:57;51.17;;;24.77;;
52434;SDS011;38354;52.892;6.148;2022-12-13T10:50:24;54.60;;;26.65;;
52434;SDS011;38354;52.892;6.148;2022-12-13T10:52:52;50.83;;;25.48;;
52434;SDS011;38354;52.892;6.148;2022-12-13T10:58:00;50.50;;;23.25;;
52434;SDS011;38354;52.892;6.148;2022-12-13T11:03:11;48.00;;;23.50;;
52434;SDS011;38354;52.892;6.148;2022-12-13T11:06:00;47.60;;;21.95;;
52434;SDS011;38354;52.892;6.148;2022-12-13T11:08:30;46.75;;;22.48;;
52434;SDS011;38354;52.892;6.148;2022-12-13T11:11:03;50.15;;;24.25;;
52434;SDS011;38354;52.892;6.148;2022-12-13T11:16:19;43.47;;;21.90;;
52434;SDS011;38354;52.892;6.148;2022-12-13T11:18:58;41.55;;;22.30;;
52434;SDS011;38354;52.892;6.148;2022-12-13T11:21:31;45.28;;;22.35;;
52434;SDS011;38354;52.892;6.148;2022-12-13T11:24:01;47.60;;;23.20;;
52434;SDS011;38354;52.892;6.148;2022-12-13T11:26:31;42.22;;;21.35;;
52434;SDS011;38354;52.892;6.148;2022-12-13T11:40:25;41.10;;;21.15;;
52434;SDS011;38354;52.892;6.148;2022-12-13T11:42:58;46.08;;;22.13;;
52434;SDS011;38354;52.892;6.148;2022-12-13T11:45:30;45.55;;;22.35;;
52434;SDS011;38354;52.892;6.148;2022-12-13T11:51:28;38.90;;;20.58;;
52434;SDS011;38354;52.892;6.148;2022-12-13T11:54:02;40.78;;;22.08;;
52434;SDS011;38354;52.892;6.148;2022-12-13T11:56:34;41.55;;;21.95;;
52434;SDS011;38354;52.892;6.148;2022-12-13T11:59:08;45.08;;;24.00;;
52434;SDS011;38354;52.892;6.148;2022-12-13T12:02:15;43.55;;;21.90;;
52434;SDS011;38354;52.892;6.148;2022-12-13T12:04:59;43.55;;;22.38;;
52434;SDS011;38354;52.892;6.148;2022-12-13T12:07:42;45.58;;;22.52;;
52434;SDS011;38354;52.892;6.148;2022-12-13T12:12:45;47.40;;;25.08;;
52434;SDS011;38354;52.892;6.148;2022-12-13T12:17:56;45.00;;;22.60;;
52434;SDS011;38354;52.892;6.148;2022-12-13T12:20:38;42.92;;;22.90;;
52434;SDS011;38354;52.892;6.148;2022-12-13T12:26:09;41.55;;;21.60;;
52434;SDS011;38354;52.892;6.148;2022-12-13T12:28:50;43.50;;;22.95;;
52434;SDS011;38354;52.892;6.148;2022-12-13T12:34:06;40.85;;;21.10;;
52434;SDS011;38354;52.892;6.148;2022-12-13T12:50:23;32.92;;;18.45;;
52434;SDS011;38354;52.892;6.148;2022-12-13T12:53:19;42.45;;;20.08;;
52434;SDS011;38354;52.892;6.148;2022-12-13T12:58:56;36.80;;;19.02;;
52434;SDS011;38354;52.892;6.148;2022-12-13T13:04:43;33.50;;;18.95;;
52434;SDS011;38354;52.892;6.148;2022-12-13T13:09:53;35.65;;;18.60;;
52434;SDS011;38354;52.892;6.148;2022-12-13T13:12:21;36.08;;;18.50;;
52434;SDS011;38354;52.892;6.148;2022-12-13T13:14:48;35.20;;;18.42;;
52434;SDS011;38354;52.892;6.148;2022-12-13T13:19:46;36.25;;;19.13;;
52434;SDS011;38354;52.892;6.148;2022-12-13T13:22:36;30.60;;;16.98;;
52434;SDS011;38354;52.892;6.148;2022-12-13T13:27:32;35.13;;;17.73;;
52434;SDS011;38354;52.892;6.148;2022-12-13T13:30:06;30.65;;;17.45;;
52434;SDS011;38354;52.892;6.148;2022-12-13T13:32:32;34.17;;;18.00;;
52434;SDS011;38354;52.892;6.148;2022-12-13T13:37:57;35.60;;;18.25;;
52434;SDS011;38354;52.892;6.148;2022-12-13T13:40:33;33.45;;;17.02;;
52434;SDS011;38354;52.892;6.148;2022-12-13T13:45:51;33.65;;;18.10;;
52434;SDS011;38354;52.892;6.148;2022-12-13T14:27:30;42.75;;;20.85;;
52434;SDS011;38354;52.892;6.148;2022-12-13T14:30:02;38.45;;;20.80;;
52434;SDS011;38354;52.892;6.148;2022-12-13T14:32:29;42.72;;;20.90;;
52434;SDS011;38354;52.892;6.148;2022-12-13T14:34:59;46.10;;;23.08;;
52434;SDS011;38354;52.892;6.148;2022-12-13T14:37:29;42.05;;;23.13;;
52434;SDS011;38354;52.892;6.148;2022-12-13T14:40:17;42.40;;;21.67;;
52434;SDS011;38354;52.892;6.148;2022-12-13T14:42:51;44.65;;;21.70;;
52434;SDS011;38354;52.892;6.148;2022-12-13T14:45:21;46.80;;;22.58;;
52434;SDS011;38354;52.892;6.148;2022-12-13T14:47:53;44.80;;;23.20;;
52434;SDS011;38354;52.892;6.148;2022-12-13T14:50:22;43.88;;;22.88;;
52434;SDS011;38354;52.892;6.148;2022-12-13T14:52:49;48.95;;;23.67;;
52434;SDS011;38354;52.892;6.148;2022-12-13T14:58:01;48.53;;;24.00;;
52434;SDS011;38354;52.892;6.148;2022-12-13T15:00:39;51.00;;;23.33;;
52434;SDS011;38354;52.892;6.148;2022-12-13T15:03:05;46.03;;;24.13;;
52434;SDS011;38354;52.892;6.148;2022-12-13T15:05:32;49.72;;;24.90;;
52434;SDS011;38354;52.892;6.148;2022-12-13T15:08:06;53.78;;;27.33;;
52434;SDS011;38354;52.892;6.148;2022-12-13T15:10:43;55.30;;;26.95;;
52434;SDS011;38354;52.892;6.148;2022-12-13T15:13:34;55.25;;;26.08;;
52434;SDS011;38354;52.892;6.148;2022-12-13T15:16:25;58.38;;;27.95;;
52434;SDS011;38354;52.892;6.148;2022-12-13T15:19:12;55.10;;;26.25;;
52434;SDS011;38354;52.892;6.148;2022-12-13T15:21:39;56.35;;;26.75;;
52434;SDS011;38354;52.892;6.148;2022-12-13T15:24:05;57.05;;;27.77;;
52434;SDS011;38354;52.892;6.148;2022-12-13T15:26:32;58.25;;;27.83;;
52434;SDS011;38354;52.892;6.148;2022-12-13T15:29:00;56.15;;;27.45;;
52434;SDS011;38354;52.892;6.148;2022-12-13T15:31:30;58.00;;;29.00;;
52434;SDS011;38354;52.892;6.148;2022-12-13T15:36:47;55.88;;;27.27;;
52434;SDS011;38354;52.892;6.148;2022-12-13T15:39:14;60.88;;;27.08;;
52434;SDS011;38354;52.892;6.148;2022-12-13T15:41:44;61.22;;;29.25;;
52434;SDS011;38354;52.892;6.148;2022-12-13T15:46:45;69.22;;;30.25;;
52434;SDS011;38354;52.892;6.148;2022-12-13T15:49:26;74.70;;;35.50;;
52434;SDS011;38354;52.892;6.148;2022-12-13T15:51:59;85.05;;;38.53;;
52434;SDS011;38354;52.892;6.148;2022-12-13T15:54:59;66.22;;;31.33;;
52434;SDS011;38354;52.892;6.148;2022-12-13T15:57:49;62.33;;;29.60;;
52434;SDS011;38354;52.892;6.148;2022-12-13T16:03:26;63.50;;;28.02;;
52434;SDS011;38354;52.892;6.148;2022-12-13T16:05:48;58.05;;;26.88;;
52434;SDS011;38354;52.892;6.148;2022-12-13T16:10:53;54.80;;;26.80;;
52434;SDS011;38354;52.892;6.148;2022-12-13T16:13:24;55.45;;;27.95;;
52434;SDS011;38354;52.892;6.148;2022-12-13T16:15:52;61.70;;;28.27;;
52434;SDS011;38354;52.892;6.148;2022-12-13T16:18:21;64.22;;;28.58;;
52434;SDS011;38354;52.892;6.148;2022-12-13T16:20:51;60.90;;;28.63;;
52434;SDS011;38354;52.892;6.148;2022-12-13T16:23:17;56.97;;;26.65;;
52434;SDS011;38354;52.892;6.148;2022-12-13T16:25:43;56.55;;;26.23;;
52434;SDS011;38354;52.892;6.148;2022-12-13T16:28:12;58.65;;;25.90;;
52434;SDS011;38354;52.892;6.148;2022-12-13T16:30:53;55.15;;;26.23;;
52434;SDS011;38354;52.892;6.148;2022-12-13T16:33:33;61.72;;;28.10;;
52434;SDS011;38354;52.892;6.148;2022-12-13T16:35:59;52.70;;;25.90;;
52434;SDS011;38354;52.892;6.148;2022-12-13T16:38:25;52.65;;;26.33;;
52434;SDS011;38354;52.892;6.148;2022-12-13T16:40:52;52.78;;;25.38;;
52434;SDS011;38354;52.892;6.148;2022-12-13T16:43:21;56.17;;;25.17;;
52434;SDS011;38354;52.892;6.148;2022-12-13T16:45:49;62.20;;;27.17;;
52434;SDS011;38354;52.892;6.148;2022-12-13T16:48:15;61.47;;;27.27;;
52434;SDS011;38354;52.892;6.148;2022-12-13T16:50:47;56.45;;;27.13;;
52434;SDS011;38354;52.892;6.148;2022-12-13T16:53:14;59.88;;;27.38;;
52434;SDS011;38354;52.892;6.148;2022-12-13T16:55:40;60.83;;;26.35;;
52434;SDS011;38354;52.892;6.148;2022-12-13T16:58:09;61.25;;;26.10;;
52434;SDS011;38354;52.892;6.148;2022-12-13T17:00:37;57.38;;;26.58;;
52434;SDS011;38354;52.892;6.148;2022-12-13T17:03:03;57.10;;;26.88;;
52434;SDS011;38354;52.892;6.148;2022-12-13T17:05:31;61.90;;;28.08;;
52434;SDS011;38354;52.892;6.148;2022-12-13T17:07:58;59.63;;;28.45;;
52434;SDS011;38354;52.892;6.148;2022-12-13T17:10:24;63.42;;;28.58;;
52434;SDS011;38354;52.892;6.148;2022-12-13T17:12:49;59.75;;;27.85;;
52434;SDS011;38354;52.892;6.148;2022-12-13T17:15:15;67.32;;;28.75;;
52434;SDS011;38354;52.892;6.148;2022-12-13T17:17:42;60.97;;;28.17;;
52434;SDS011;38354;52.892;6.148;2022-12-13T17:20:09;55.13;;;25.85;;
52434;SDS011;38354;52.892;6.148;2022-12-13T17:22:38;59.35;;;26.73;;
52434;SDS011;38354;52.892;6.148;2022-12-13T17:25:04;55.13;;;25.65;;
52434;SDS011;38354;52.892;6.148;2022-12-13T17:27:31;57.33;;;26.85;;
52434;SDS011;38354;52.892;6.148;2022-12-13T17:29:57;58.22;;;27.08;;
52434;SDS011;38354;52.892;6.148;2022-12-13T17:32:23;61.72;;;27.35;;
52434;SDS011;38354;52.892;6.148;2022-12-13T17:34:49;62.58;;;27.38;;
52434;SDS011;38354;52.892;6.148;2022-12-13T17:37:15;65.40;;;28.08;;
52434;SDS011;38354;52.892;6.148;2022-12-13T17:39:41;60.40;;;27.38;;
52434;SDS011;38354;52.892;6.148;2022-12-13T17:42:06;65.32;;;27.90;;
52434;SDS011;38354;52.892;6.148;2022-12-13T17:44:32;55.25;;;27.17;;
52434;SDS011;38354;52.892;6.148;2022-12-13T17:46:57;64.43;;;27.90;;
52434;SDS011;38354;52.892;6.148;2022-12-13T17:49:23;68.78;;;33.90;;
52434;SDS011;38354;52.892;6.148;2022-12-13T17:51:50;79.43;;;37.60;;
52434;SDS011;38354;52.892;6.148;2022-12-13T17:54:17;72.28;;;33.85;;
52434;SDS011;38354;52.892;6.148;2022-12-13T17:56:47;70.53;;;31.73;;
52434;SDS011;38354;52.892;6.148;2022-12-13T17:59:15;71.20;;;31.55;;
52434;SDS011;38354;52.892;6.148;2022-12-13T18:01:41;73.53;;;31.83;;
52434;SDS011;38354;52.892;6.148;2022-12-13T18:04:08;57.88;;;28.00;;
52434;SDS011;38354;52.892;6.148;2022-12-13T18:06:33;66.70;;;29.92;;
52434;SDS011;38354;52.892;6.148;2022-12-13T18:09:00;66.10;;;31.23;;
52434;SDS011;38354;52.892;6.148;2022-12-13T18:11:26;62.67;;;28.42;;
52434;SDS011;38354;52.892;6.148;2022-12-13T18:13:52;68.85;;;30.98;;
52434;SDS011;38354;52.892;6.148;2022-12-13T18:16:18;66.43;;;31.42;;
52434;SDS011;38354;52.892;6.148;2022-12-13T18:18:44;66.10;;;29.42;;
52434;SDS011;38354;52.892;6.148;2022-12-13T18:21:16;64.00;;;29.48;;
52434;SDS011;38354;52.892;6.148;2022-12-13T18:23:43;63.03;;;28.00;;
52434;SDS011;38354;52.892;6.148;2022-12-13T18:26:13;64.43;;;29.50;;
52434;SDS011;38354;52.892;6.148;2022-12-13T18:28:40;60.63;;;29.63;;
52434;SDS011;38354;52.892;6.148;2022-12-13T18:31:07;63.75;;;28.73;;
52434;SDS011;38354;52.892;6.148;2022-12-13T18:33:36;63.20;;;29.17;;
52434;SDS011;38354;52.892;6.148;2022-12-13T18:36:02;72.45;;;31.02;;
52434;SDS011;38354;52.892;6.148;2022-12-13T18:38:29;69.07;;;30.23;;
52434;SDS011;38354;52.892;6.148;2022-12-13T18:40:54;68.20;;;30.65;;
52434;SDS011;38354;52.892;6.148;2022-12-13T18:43:24;66.28;;;28.50;;
52434;SDS011;38354;52.892;6.148;2022-12-13T18:45:53;64.60;;;28.38;;
52434;SDS011;38354;52.892;6.148;2022-12-13T18:48:18;65.20;;;29.77;;
52434;SDS011;38354;52.892;6.148;2022-12-13T18:50:44;67.00;;;28.83;;
52434;SDS011;38354;52.892;6.148;2022-12-13T18:53:10;66.70;;;30.65;;
52434;SDS011;38354;52.892;6.148;2022-12-13T18:55:36;65.90;;;29.80;;
52434;SDS011;38354;52.892;6.148;2022-12-13T18:58:05;70.47;;;30.50;;
52434;SDS011;38354;52.892;6.148;2022-12-13T19:00:31;72.05;;;32.05;;
52434;SDS011;38354;52.892;6.148;2022-12-13T19:02:56;71.28;;;31.80;;
52434;SDS011;38354;52.892;6.148;2022-12-13T19:05:22;69.80;;;31.25;;
52434;SDS011;38354;52.892;6.148;2022-12-13T19:07:48;71.55;;;31.75;;
52434;SDS011;38354;52.892;6.148;2022-12-13T19:10:14;68.78;;;31.88;;
52434;SDS011;38354;52.892;6.148;2022-12-13T19:12:39;66.10;;;29.77;;
52434;SDS011;38354;52.892;6.148;2022-12-13T19:15:05;70.65;;;32.25;;
52434;SDS011;38354;52.892;6.148;2022-12-13T19:17:31;71.43;;;32.17;;
52434;SDS011;38354;52.892;6.148;2022-12-13T19:19:57;69.70;;;31.65;;
52434;SDS011;38354;52.892;6.148;2022-12-13T19:22:23;70.20;;;31.67;;
52434;SDS011;38354;52.892;6.148;2022-12-13T19:24:49;71.70;;;29.65;;
52434;SDS011;38354;52.892;6.148;2022-12-13T19:27:14;68.88;;;30.30;;
52434;SDS011;38354;52.892;6.148;2022-12-13T19:29:40;70.68;;;29.98;;
52434;SDS011;38354;52.892;6.148;2022-12-13T19:32:06;73.25;;;33.25;;
52434;SDS011;38354;52.892;6.148;2022-12-13T19:34:31;72.72;;;32.67;;
52434;SDS011;38354;52.892;6.148;2022-12-13T19:36:57;77.32;;;31.85;;
52434;SDS011;38354;52.892;6.148;2022-12-13T19:39:23;64.78;;;30.50;;
52434;SDS011;38354;52.892;6.148;2022-12-13T19:41:49;75.80;;;32.80;;
52434;SDS011;38354;52.892;6.148;2022-12-13T19:44:15;74.25;;;34.00;;
52434;SDS011;38354;52.892;6.148;2022-12-13T19:46:41;76.72;;;34.10;;
52434;SDS011;38354;52.892;6.148;2022-12-13T19:49:08;73.43;;;32.28;;
52434;SDS011;38354;52.892;6.148;2022-12-13T19:51:35;76.18;;;33.63;;
52434;SDS011;38354;52.892;6.148;2022-12-13T19:54:01;73.40;;;32.80;;
52434;SDS011;38354;52.892;6.148;2022-12-13T19:56:27;81.75;;;34.92;;
52434;SDS011;38354;52.892;6.148;2022-12-13T19:58:53;71.72;;;33.15;;
52434;SDS011;38354;52.892;6.148;2022-12-13T20:01:19;74.93;;;33.33;;
52434;SDS011;38354;52.892;6.148;2022-12-13T20:03:45;72.47;;;32.90;;
52434;SDS011;38354;52.892;6.148;2022-12-13T20:06:12;75.65;;;33.95;;
52434;SDS011;38354;52.892;6.148;2022-12-13T20:08:40;75.85;;;33.72;;
52434;SDS011;38354;52.892;6.148;2022-12-13T20:11:10;75.95;;;34.17;;
52434;SDS011;38354;52.892;6.148;2022-12-13T20:13:39;80.00;;;33.28;;
52434;SDS011;38354;52.892;6.148;2022-12-13T20:16:05;82.35;;;33.85;;
52434;SDS011;38354;52.892;6.148;2022-12-13T20:18:32;72.03;;;31.35;;
52434;SDS011;38354;52.892;6.148;2022-12-13T20:21:05;77.13;;;33.45;;
52434;SDS011;38354;52.892;6.148;2022-12-13T20:23:33;77.95;;;33.92;;
52434;SDS011;38354;52.892;6.148;2022-12-13T20:26:00;76.22;;;33.15;;
52434;SDS011;38354;52.892;6.148;2022-12-13T20:28:27;72.75;;;33.17;;
52434;SDS011;38354;52.892;6.148;2022-12-13T20:31:03;74.30;;;32.17;;
52434;SDS011;38354;52.892;6.148;2022-12-13T20:33:30;80.05;;;34.20;;
52434;SDS011;38354;52.892;6.148;2022-12-13T20:36:15;71.43;;;32.72;;
52434;SDS011;38354;52.892;6.148;2022-12-13T20:38:43;76.25;;;33.17;;
52434;SDS011;38354;52.892;6.148;2022-12-13T20:41:09;69.55;;;32.80;;
52434;SDS011;38354;52.892;6.148;2022-12-13T20:43:36;78.65;;;34.17;;
52434;SDS011;38354;52.892;6.148;2022-12-13T20:46:03;68.13;;;31.55;;